Appleton, Wisconsin
Current Conditions -  °F | °C
As of 12:15 AM on Friday 31 Oct 2014 (Local Time) from KATW Reporting Station
Overcast Overcast  
Wind Chill: 30°   Ceiling: 3100
Heat Index: 39°   Visibility: 10mi
Dew Point: 30°   Wind: 16mph
Humidity: 70%   Direction: 320°NW
Pressure: 30.03"   Gusts: 21mph
Location:  44.26°N, 88.42°W
Report Text: KATW 310515Z AUTO 32014G18KT 10SM OVC031 04/M01 A3003 RMK AO2
Loading
Personal Weather Stations






























Interactive Weather Map
Tropical Storm Tracking
New forecast layout! Learn more

10-Day Weather Forecast

Advertisements
Track Severe Weather on mobile